Loading…
Loading…
Loading…
Loading…
Loading parcel record…
Plumsted, NJ·Ocean County
Owner email, phone, and authorized agent are available on Pro.
| Date | Price | Book / Page |
|---|---|---|
| 1/31/1995 | $39,500 | 5246 / 793 |
Activity captured from the county clerk's daily feed. Includes deeds, mortgages, and other recorded filings.
| Date | Type | Grantor | Grantee | Book / Page | Instrument |
|---|---|---|---|---|---|
| 2024-12-05 | DISCHARGE OF LIS PENDENS | — | — | 19866 / 1505 |
| 2024090352 |
| 2024-09-06 | MORTGAGE | — | — | 19783 / 624 | 2024065825 |
| 2024-08-23 | NOTICE OF LIS PENDING RECORDED | — | — | 19771 / 884 | 2024062215 |
| 2024-01-05 | DEED | — | — | 19576 / 94 | 2024001113 |
| 2022-04-21 | MORTGAGE | — | — | 19002 / 1207 | 2022048399 |
| 2022-03-30 | UCC-1 | — | — | 18970 / 1332 | 2022038611 |
| 2022-03-28 | MORTGAGE | — | — | 18967 / 987 | 2022037633 |
| 2022-02-17 | MORTGAGE | — | — | 18914 / 392 | 2022021035 |
| 2022-02-17 | DEED | — | — | 18914 / 383 | 2022021034 |
| 2022-01-11 | MORTGAGE | — | — | 18861 / 1860 | 2022004417 |
| 2021-12-30 | NOTICE OF SETTLEMENT | — | — | 18846 / 1408 | 2021184206 |
| 2021-12-30 | NOTICE OF SETTLEMENT | — | — | 18846 / 1405 | 2021184205 |
| 2021-12-10 | MORTGAGE | — | — | 18818 / 211 | 2021175851 |
| 2021-12-10 | DEED | — | — | 18818 / 204 | 2021175850 |
| 2021-11-29 | MORTGAGE | — | — | 18796 / 822 | 2021169298 |
| 2021-11-26 | NOTICE OF SETTLEMENT DOUBLE TRANSACTION | — | — | 18794 / 1418 | 2021168803 |
| 2021-11-22 | NOTICE OF SETTLEMENT | — | — | 18786 / 1442 | 2021166343 |
| 2021-11-22 | UCC TERMINATION | — | — | 18786 / 1257 | 2021166305 |
| 2021-11-03 | NOTICE OF SETTLEMENT | — | — | 18755 / 859 | 2021156994 |
| 2021-10-29 | NOTICE OF SETTLEMENT | — | — | 18751 / 292 | 2021155683 |
| 2021-10-29 | NOTICE OF SETTLEMENT | — | — | 18751 / 289 | 2021155682 |
| 2021-08-05 | MORTGAGE | — | — | 18616 / 620 | 2021115146 |
| 2021-07-28 | NOTICE OF SETTLEMENT | — | — | 18603 / 559 | 2021111107 |
| 2020-11-13 | MORTGAGE | — | — | 18151 / 456 | 2020133208 |
| 2020-05-15 | MORTGAGE | — | — | 17889 / 1650 | 2020049392 |
| 2020-03-30 | NOTICE OF SETTLEMENT | — | — | 17839 / 113 | 2020033478 |
| 2020-01-28 | UCC-1 | — | — | 17766 / 278 | 2020009247 |
| 2019-10-17 | MORTGAGE | — | — | 17647 / 1201 | 2019104635 |
| 1990-04-23 | MORT | — | — | 3383 / 557 | 019326 |